Time,TemperatureF,DewpointF,PressureIn,WindDirection,WindDirectionDegrees,WindSpeedMPH,WindSpeedGustMPH,Humidity,HourlyPrecipIn,Conditions,Clouds,dailyrainin,SoftwareType,DateUTC
2013-08-28 00:04:00,69.8,68.0,30.11,NW,322,0.0,-999.0,93,-99.99,,,0.00,weatherlink.com 1.10,2013-08-28 04:04:00,
2013-08-28 00:19:00,69.5,68.0,30.11,NW,322,0.0,-999.0,93,-99.99,,,0.00,weatherlink.com 1.10,2013-08-28 04:19:00,
2013-08-28 00:34:00,69.4,67.0,30.11,NW,322,0.0,-999.0,93,-99.99,,,0.00,weatherlink.com 1.10,2013-08-28 04:34:00,
2013-08-28 00:49:00,69.4,67.0,30.11,NW,322,0.0,-999.0,93,-99.99,,,0.00,weatherlink.com 1.10,2013-08-28 04:49:00,
2013-08-28 01:04:00,69.0,67.0,30.10,NW,322,0.0,-999.0,93,-99.99,,,0.00,weatherlink.com 1.10,2013-08-28 05:04:00,
2013-08-28 01:19:00,68.7,67.0,30.10,NW,322,0.0,-999.0,93,-99.99,,,0.00,weatherlink.com 1.10,2013-08-28 05:19:00,
2013-08-28 01:34:00,68.3,66.0,30.10,NW,322,0.0,-999.0,93,-99.99,,,0.00,weatherlink.com 1.10,2013-08-28 05:34:00,
2013-08-28 01:49:00,67.9,66.0,30.09,NW,322,0.0,-999.0,93,-99.99,,,0.00,weatherlink.com 1.10,2013-08-28 05:49:00,
2013-08-28 02:04:00,67.8,66.0,30.09,NW,322,0.0,-999.0,93,-99.99,,,0.00,weatherlink.com 1.10,2013-08-28 06:04:00,
2013-08-28 02:19:00,67.6,66.0,30.09,NW,322,0.0,-999.0,93,-99.99,,,0.00,weatherlink.com 1.10,2013-08-28 06:19:00,
2013-08-28 02:34:00,67.4,65.0,30.08,NW,322,0.0,-999.0,93,-99.99,,,0.00,weatherlink.com 1.10,2013-08-28 06:34:00,
2013-08-28 02:49:00,67.3,65.0,30.08,NW,322,0.0,-999.0,93,-99.99,,,0.00,weatherlink.com 1.10,2013-08-28 06:49:00,
2013-08-28 03:04:00,67.1,65.0,30.08,NW,322,0.0,-999.0,93,-99.99,,,0.00,weatherlink.com 1.10,2013-08-28 07:04:00,
2013-08-28 03:19:00,67.0,65.0,30.08,NW,322,0.0,-999.0,93,-99.99,,,0.00,weatherlink.com 1.10,2013-08-28 07:19:00,
2013-08-28 03:34:00,66.6,65.0,30.08,NW,322,0.0,-999.0,93,-99.99,,,0.00,weatherlink.com 1.10,2013-08-28 07:34:00,
2013-08-28 03:49:00,66.5,65.0,30.08,NW,322,0.0,-999.0,93,-99.99,,,0.00,weatherlink.com 1.10,2013-08-28 07:49:00,
2013-08-28 04:04:00,66.3,64.0,30.08,NW,322,0.0,-999.0,93,-99.99,,,0.00,weatherlink.com 1.10,2013-08-28 08:04:00,
2013-08-28 04:19:00,66.3,64.0,30.08,NW,322,0.0,-999.0,93,-99.99,,,0.00,weatherlink.com 1.10,2013-08-28 08:19:00,
2013-08-28 04:34:00,66.3,64.0,30.07,NW,322,0.0,-999.0,93,-99.99,,,0.00,weatherlink.com 1.10,2013-08-28 08:34:00,
2013-08-28 04:49:00,66.0,64.0,30.07,NW,322,0.0,-999.0,93,-99.99,,,0.00,weatherlink.com 1.10,2013-08-28 08:49:00,
2013-08-28 05:04:00,65.9,64.0,30.08,NW,322,0.0,-999.0,93,-99.99,,,0.00,weatherlink.com 1.10,2013-08-28 09:04:00,
2013-08-28 05:19:00,65.6,64.0,30.08,NW,322,0.0,-999.0,93,-99.99,,,0.00,weatherlink.com 1.10,2013-08-28 09:19:00,
2013-08-28 05:34:00,65.3,63.0,30.08,NW,322,0.0,-999.0,93,-99.99,,,0.00,weatherlink.com 1.10,2013-08-28 09:34:00,
2013-08-28 05:49:00,65.4,63.0,30.08,NW,322,0.0,-999.0,93,-99.99,,,0.00,weatherlink.com 1.10,2013-08-28 09:49:00,
2013-08-28 06:04:00,65.3,63.0,30.08,NW,322,0.0,-999.0,93,-99.99,,,0.00,weatherlink.com 1.10,2013-08-28 10:04:00,
2013-08-28 06:19:00,65.2,63.0,30.09,NW,322,0.0,-999.0,93,-99.99,,,0.00,weatherlink.com 1.10,2013-08-28 10:19:00,
2013-08-28 06:34:00,65.5,64.0,30.09,NW,322,0.0,-999.0,93,-99.99,,,0.00,weatherlink.com 1.10,2013-08-28 10:34:00,
2013-08-28 06:49:00,65.4,63.0,30.09,NW,322,0.0,-999.0,93,-99.99,,,0.00,weatherlink.com 1.10,2013-08-28 10:49:00,
2013-08-28 07:04:00,65.2,63.0,30.10,NW,322,0.0,-999.0,93,-99.99,,,0.00,weatherlink.com 1.10,2013-08-28 11:04:00,
2013-08-28 07:19:00,65.2,63.0,30.10,NW,322,0.0,-999.0,93,-99.99,,,0.00,weatherlink.com 1.10,2013-08-28 11:19:00,
2013-08-28 07:34:00,65.2,63.0,30.11,NW,322,0.0,-999.0,93,-99.99,,,0.00,weatherlink.com 1.10,2013-08-28 11:34:00,
2013-08-28 07:49:00,65.6,64.0,30.11,NW,322,0.0,-999.0,93,-99.99,,,0.00,weatherlink.com 1.10,2013-08-28 11:49:00,
2013-08-28 08:04:00,66.7,65.0,30.12,NW,319,0.0,-999.0,93,-99.99,,,0.00,weatherlink.com 1.10,2013-08-28 12:04:00,
2013-08-28 08:19:00,67.7,66.0,30.12,NNE,19,0.0,-999.0,93,-99.99,,,0.00,weatherlink.com 1.10,2013-08-28 12:19:00,
2013-08-28 08:34:00,68.5,67.0,30.11,NNE,19,0.0,-999.0,93,-99.99,,,0.00,weatherlink.com 1.10,2013-08-28 12:34:00,
2013-08-28 08:49:00,70.0,68.0,30.11,NNE,19,0.0,-999.0,92,-99.99,,,0.00,weatherlink.com 1.10,2013-08-28 12:49:00,
2013-08-28 09:04:00,71.1,68.0,30.11,NNE,18,0.0,-999.0,91,-99.99,,,0.00,weatherlink.com 1.10,2013-08-28 13:04:00,
2013-08-28 09:19:00,72.5,70.0,30.11,NNE,18,0.0,-999.0,90,-99.99,,,0.00,weatherlink.com 1.10,2013-08-28 13:19:00,
2013-08-28 09:34:00,73.4,70.0,30.11,NNE,19,0.0,-999.0,89,-99.99,,,0.00,weatherlink.com 1.10,2013-08-28 13:34:00,
2013-08-28 09:49:00,74.8,70.0,30.11,North,349,3.0,-999.0,86,-99.99,,,0.00,weatherlink.com 1.10,2013-08-28 13:49:00,
2013-08-28 10:04:00,75.6,70.0,30.11,North,10,5.0,-999.0,83,-99.99,,,0.00,weatherlink.com 1.10,2013-08-28 14:04:00,
2013-08-28 10:19:00,76.0,70.0,30.11,North,355,5.0,-999.0,82,-99.99,,,0.00,weatherlink.com 1.10,2013-08-28 14:19:00,
2013-08-28 10:34:00,77.6,71.0,30.11,North,355,4.0,-999.0,79,-99.99,,,0.00,weatherlink.com 1.10,2013-08-28 14:34:00,
2013-08-28 10:49:00,78.5,72.0,30.11,North,5,3.0,-999.0,80,-99.99,,,0.00,weatherlink.com 1.10,2013-08-28 14:49:00,
2013-08-28 11:04:00,79.2,71.0,30.12,NNE,20,3.0,-999.0,77,-99.99,,,0.00,weatherlink.com 1.10,2013-08-28 15:04:00,
2013-08-28 11:19:00,80.3,71.0,30.12,ENE,57,5.0,-999.0,74,-99.99,,,0.00,weatherlink.com 1.10,2013-08-28 15:19:00,
2013-08-28 11:34:00,80.4,72.0,30.12,NE,49,2.0,-999.0,76,-99.99,,,0.00,weatherlink.com 1.10,2013-08-28 15:34:00,
2013-08-28 11:49:00,80.7,72.0,30.12,NE,37,6.0,-999.0,74,-99.99,,,0.00,weatherlink.com 1.10,2013-08-28 15:49:00,
2013-08-28 12:05:00,81.3,73.0,30.11,North,360,3.0,-999.0,75,-99.99,,,0.00,weatherlink.com 1.10,2013-08-28 16:05:00,
2013-08-28 12:20:00,82.1,72.0,30.12,NNE,31,6.0,-999.0,72,-99.99,,,0.00,weatherlink.com 1.10,2013-08-28 16:20:00,
2013-08-28 12:35:00,81.9,72.0,30.11,North,5,7.0,-999.0,72,-99.99,,,0.00,weatherlink.com 1.10,2013-08-28 16:35:00,
2013-08-28 12:50:00,82.1,71.0,30.11,NNW,338,10.0,-999.0,70,-99.99,,,0.00,weatherlink.com 1.10,2013-08-28 16:50:00,
2013-08-28 13:05:00,82.9,72.0,30.11,North,9,5.0,-999.0,69,-99.99,,,0.00,weatherlink.com 1.10,2013-08-28 17:05:00,
2013-08-28 13:20:00,83.2,71.0,30.10,SE,136,0.0,-999.0,66,-99.99,,,0.00,weatherlink.com 1.10,2013-08-28 17:20:00,
2013-08-28 13:35:00,84.1,72.0,30.10,NE,38,5.0,-999.0,66,-99.99,,,0.00,weatherlink.com 1.10,2013-08-28 17:35:00,
2013-08-28 14:20:00,84.2,71.0,30.09,SSW,207,0.0,-999.0,65,-99.99,,,0.00,weatherlink.com 1.10,2013-08-28 18:20:00,
2013-08-28 14:35:00,84.4,70.0,30.09,NW,317,2.0,-999.0,63,-99.99,,,0.00,weatherlink.com 1.10,2013-08-28 18:35:00,
2013-08-28 14:50:00,84.8,71.0,30.08,NW,304,0.0,-999.0,63,-99.99,,,0.00,weatherlink.com 1.10,2013-08-28 18:50:00,
2013-08-28 15:05:00,86.1,71.0,30.08,North,360,3.0,-999.0,60,-99.99,,,0.00,weatherlink.com 1.10,2013-08-28 19:05:00,
2013-08-28 15:20:00,85.9,71.0,30.07,SE,134,0.0,-999.0,62,-99.99,,,0.00,weatherlink.com 1.10,2013-08-28 19:20:00,
2013-08-28 15:35:00,85.8,71.0,30.07,ENE,70,0.0,-999.0,62,-99.99,,,0.00,weatherlink.com 1.10,2013-08-28 19:35:00,
2013-08-28 15:50:00,85.9,71.0,30.07,NNE,31,4.0,-999.0,61,-99.99,,,0.00,weatherlink.com 1.10,2013-08-28 19:50:00,
2013-08-28 15:51:00,40.0,38.1,30.18,NNW,344,0.0,0.0,93,0.00,,---,0.00,VWS V14.00,2013-08-28 19:51:00,
2013-08-28 15:52:00,40.0,38.1,30.18,NNW,344,0.0,0.0,93,16.60,,---,0.00,VWS V14.00,2013-08-28 19:52:00,
2013-08-28 16:05:00,85.8,70.0,30.06,ESE,123,5.0,-999.0,60,-99.99,,,0.00,weatherlink.com 1.10,2013-08-28 20:05:00,
2013-08-28 16:20:00,85.4,71.0,30.06,North,360,4.0,-999.0,63,-99.99,,,0.00,weatherlink.com 1.10,2013-08-28 20:20:00,
2013-08-28 16:35:00,86.4,71.0,30.06,NNE,17,3.0,-999.0,60,-99.99,,,0.00,weatherlink.com 1.10,2013-08-28 20:35:00,
2013-08-28 16:50:00,87.0,71.0,30.06,North,5,0.0,-999.0,60,-99.99,,,0.00,weatherlink.com 1.10,2013-08-28 20:50:00,
2013-08-28 17:05:00,86.4,71.0,30.05,NW,324,4.0,-999.0,61,-99.99,,,0.00,weatherlink.com 1.10,2013-08-28 21:05:00,
2013-08-28 17:20:00,85.5,71.0,30.05,NW,322,3.0,-999.0,62,-99.99,,,0.00,weatherlink.com 1.10,2013-08-28 21:20:00,
2013-08-28 17:35:00,85.6,72.0,30.05,NNE,21,1.0,-999.0,63,-99.99,,,0.00,weatherlink.com 1.10,2013-08-28 21:35:00,
2013-08-28 17:50:00,85.6,72.0,30.05,NNW,331,2.0,-999.0,63,-99.99,,,0.00,weatherlink.com 1.10,2013-08-28 21:50:00,
2013-08-28 18:05:00,85.2,72.0,30.04,NNW,342,4.0,-999.0,65,-99.99,,,0.00,weatherlink.com 1.10,2013-08-28 22:05:00,
2013-08-28 18:20:00,84.7,72.0,30.04,NNW,339,4.0,-999.0,65,-99.99,,,0.00,weatherlink.com 1.10,2013-08-28 22:20:00,
2013-08-28 18:35:00,84.5,72.0,30.04,North,360,1.0,-999.0,67,-99.99,,,0.00,weatherlink.com 1.10,2013-08-28 22:35:00,
2013-08-28 18:50:00,84.9,73.0,30.04,NW,310,0.0,-999.0,67,-99.99,,,0.00,weatherlink.com 1.10,2013-08-28 22:50:00,
2013-08-28 19:05:00,84.3,72.0,30.04,NW,315,2.0,-999.0,67,-99.99,,,0.00,weatherlink.com 1.10,2013-08-28 23:05:00,
2013-08-28 19:20:00,83.7,73.0,30.04,NW,315,2.0,-999.0,69,-99.99,,,0.00,weatherlink.com 1.10,2013-08-28 23:20:00,
2013-08-28 19:35:00,83.6,73.0,30.04,NW,313,0.0,-999.0,70,-99.99,,,0.00,weatherlink.com 1.10,2013-08-28 23:35:00,
2013-08-28 19:50:00,83.3,74.0,30.04,NW,313,0.0,-999.0,73,-99.99,,,0.00,weatherlink.com 1.10,2013-08-28 23:50:00,
2013-08-28 20:05:00,82.1,73.0,30.04,NW,313,0.0,-999.0,74,-99.99,,,0.00,weatherlink.com 1.10,2013-08-29 00:05:00,
2013-08-28 20:20:00,80.7,73.0,30.04,NW,313,0.0,-999.0,78,-99.99,,,0.00,weatherlink.com 1.10,2013-08-29 00:20:00,
2013-08-28 20:35:00,79.5,73.0,30.04,NW,313,0.0,-999.0,80,-99.99,,,0.00,weatherlink.com 1.10,2013-08-29 00:35:00,
2013-08-28 20:50:00,78.6,73.0,30.05,NW,313,0.0,-999.0,83,-99.99,,,0.00,weatherlink.com 1.10,2013-08-29 00:50:00,
2013-08-28 21:06:00,77.7,73.0,30.05,NW,313,0.0,-999.0,84,-99.99,,,0.00,weatherlink.com 1.10,2013-08-29 01:06:00,
2013-08-28 21:21:00,77.0,73.0,30.05,NW,313,0.0,-999.0,86,-99.99,,,0.00,weatherlink.com 1.10,2013-08-29 01:21:00,
2013-08-28 21:36:00,75.8,72.0,30.05,NW,313,0.0,-999.0,88,-99.99,,,0.00,weatherlink.com 1.10,2013-08-29 01:36:00,
2013-08-28 21:51:00,75.0,72.0,30.06,NW,313,0.0,-999.0,89,-99.99,,,0.00,weatherlink.com 1.10,2013-08-29 01:51:00,
2013-08-28 22:06:00,74.2,72.0,30.06,NW,313,0.0,-999.0,91,-99.99,,,0.00,weatherlink.com 1.10,2013-08-29 02:06:00,
2013-08-28 22:21:00,73.9,71.0,30.06,NW,313,0.0,-999.0,91,-99.99,,,0.00,weatherlink.com 1.10,2013-08-29 02:21:00,
2013-08-28 22:36:00,73.8,71.0,30.07,NW,313,0.0,-999.0,91,-99.99,,,0.00,weatherlink.com 1.10,2013-08-29 02:36:00,
2013-08-28 22:51:00,73.3,71.0,30.07,NW,313,0.0,-999.0,91,-99.99,,,0.00,weatherlink.com 1.10,2013-08-29 02:51:00,
2013-08-28 23:06:00,72.9,71.0,30.07,NW,313,0.0,-999.0,92,-99.99,,,0.00,weatherlink.com 1.10,2013-08-29 03:06:00,
2013-08-28 23:21:00,72.3,70.0,30.08,NW,313,0.0,-999.0,92,-99.99,,,0.00,weatherlink.com 1.10,2013-08-29 03:21:00,
2013-08-28 23:28:00,60.2,41.0,30.15,North,5,7.0,7.0,49,0.00,,---,0.00,VWS V14.00,2013-08-29 03:28:00,
2013-08-28 23:36:00,72.2,70.0,30.07,NW,313,0.0,-999.0,93,-99.99,,,0.00,weatherlink.com 1.10,2013-08-29 03:36:00,
2013-08-28 23:51:00,72.5,70.0,30.07,NW,313,0.0,-999.0,92,-99.99,,,0.00,weatherlink.com 1.10,2013-08-29 03:51:00,